createdAt,value
2022-11-15T00:01:42.652Z,9.28
2022-11-15T00:04:27.894Z,10.61
2022-11-15T00:07:33.283Z,11.28
2022-11-15T00:10:17.957Z,11.56
2022-11-15T00:13:07.943Z,11.79
2022-11-15T00:15:53.063Z,12.18
2022-11-15T00:18:39.186Z,12.40
2022-11-15T00:21:24.218Z,12.24
2022-11-15T00:24:09.728Z,10.85
2022-11-15T00:26:54.547Z,9.63
2022-11-15T00:29:43.510Z,8.71
2022-11-15T00:32:32.715Z,8.96
2022-11-15T00:35:18.930Z,10.57
2022-11-15T00:38:04.030Z,11.06
2022-11-15T00:40:48.970Z,11.27
2022-11-15T00:43:34.748Z,11.35
2022-11-15T00:46:19.942Z,11.35
2022-11-15T00:49:04.928Z,11.27
2022-11-15T00:51:49.599Z,11.38
2022-11-15T00:54:34.622Z,11.40
2022-11-15T00:57:19.465Z,11.34
2022-11-15T01:00:05.194Z,11.33
2022-11-15T01:02:51.279Z,11.26
2022-11-15T01:05:38.372Z,11.46
2022-11-15T01:08:23.216Z,11.56
2022-11-15T01:11:11.853Z,11.64
2022-11-15T01:13:56.708Z,11.91
2022-11-15T01:16:42.690Z,12.05
2022-11-15T01:19:27.345Z,12.11
2022-11-15T01:22:12.523Z,11.84
2022-11-15T01:24:57.423Z,10.54
2022-11-15T01:27:42.352Z,9.42
2022-11-15T01:30:27.416Z,8.61
2022-11-15T01:33:12.126Z,8.89
2022-11-15T01:35:57.174Z,10.05
2022-11-15T01:38:42.673Z,10.68
2022-11-15T01:41:30.787Z,11.05
2022-11-15T01:44:34.056Z,11.32
2022-11-15T01:47:30.684Z,11.50
2022-11-15T01:50:21.329Z,11.63
2022-11-15T01:53:06.160Z,11.53
2022-11-15T01:55:51.442Z,12.22
2022-11-15T01:58:38.263Z,13.02
2022-11-15T02:01:25.889Z,12.36
2022-11-15T02:04:19.506Z,10.67
2022-11-15T02:07:06.540Z,9.30
2022-11-15T02:09:53.258Z,9.29
2022-11-15T02:12:38.819Z,11.52
2022-11-15T02:15:31.578Z,12.61
2022-11-15T02:18:32.235Z,12.43
2022-11-15T02:21:33.432Z,11.00
2022-11-15T02:24:46.026Z,9.43
2022-11-15T02:27:52.681Z,9.21
2022-11-15T02:30:54.463Z,10.56
2022-11-15T02:33:55.630Z,10.93
2022-11-15T02:36:58.469Z,11.24
2022-11-15T02:39:52.629Z,11.48
2022-11-15T02:43:08.152Z,11.75
2022-11-15T02:46:43.811Z,11.83
2022-11-15T02:49:32.810Z,11.92
2022-11-15T02:52:20.980Z,12.00
2022-11-15T02:55:31.655Z,12.14
2022-11-15T02:58:39.101Z,11.71
2022-11-15T03:01:32.690Z,10.18
2022-11-15T03:04:20.957Z,9.12
2022-11-15T03:07:11.232Z,9.04
2022-11-15T03:10:00.885Z,10.17
2022-11-15T03:12:58.448Z,10.86
2022-11-15T03:16:17.821Z,11.02
2022-11-15T03:19:13.736Z,11.04
2022-11-15T03:22:03.116Z,11.27
2022-11-15T03:24:53.616Z,11.45
2022-11-15T03:27:43.522Z,11.68
2022-11-15T03:30:30.855Z,11.89
2022-11-15T03:33:16.961Z,12.23
2022-11-15T03:36:02.741Z,12.28
2022-11-15T03:38:48.435Z,11.21
2022-11-15T03:42:00.681Z,9.74
2022-11-15T03:45:13.903Z,8.56
2022-11-15T03:48:04.539Z,8.99
2022-11-15T03:50:49.883Z,10.94
2022-11-15T03:53:34.936Z,11.26
2022-11-15T03:56:20.581Z,11.31
2022-11-15T03:59:05.525Z,11.42
2022-11-15T04:01:50.421Z,11.73
2022-11-15T04:04:35.133Z,12.95
2022-11-15T04:07:20.381Z,12.41
2022-11-15T04:10:06.147Z,10.64
2022-11-15T04:12:51.100Z,9.16
2022-11-15T04:15:36.512Z,8.50
2022-11-15T04:18:21.557Z,10.57
2022-11-15T04:21:27.692Z,11.45
2022-11-15T04:24:12.448Z,11.33
2022-11-15T04:26:57.803Z,11.42
2022-11-15T04:29:43.042Z,11.73
2022-11-15T04:32:28.043Z,11.68
2022-11-15T04:35:13.103Z,10.69
2022-11-15T04:37:59.028Z,9.36
2022-11-15T04:40:43.923Z,8.41
2022-11-15T04:43:30.156Z,9.14
2022-11-15T04:46:15.142Z,11.40
2022-11-15T04:49:00.370Z,12.04
2022-11-15T04:51:45.636Z,11.93
2022-11-15T04:54:30.449Z,11.89
2022-11-15T04:57:15.731Z,10.93
2022-11-15T05:00:00.369Z,9.57
2022-11-15T05:03:03.872Z,8.57
2022-11-15T05:05:48.501Z,9.16
2022-11-15T05:08:33.541Z,10.92
2022-11-15T05:11:18.831Z,11.40
2022-11-15T05:14:03.564Z,11.47
2022-11-15T05:16:48.707Z,11.73
2022-11-15T05:19:33.808Z,12.03
2022-11-15T05:22:19.343Z,11.35
2022-11-15T05:25:05.070Z,10.01
2022-11-15T05:27:50.071Z,9.08
2022-11-15T05:30:35.175Z,8.37
2022-11-15T05:33:22.851Z,8.56
2022-11-15T05:36:22.304Z,10.01
2022-11-15T05:39:09.319Z,10.95
2022-11-15T05:41:59.705Z,11.43
2022-11-15T05:44:49.486Z,11.67
2022-11-15T05:47:37.172Z,11.85
2022-11-15T05:50:22.113Z,11.52
2022-11-15T05:53:08.313Z,10.25
2022-11-15T05:55:53.831Z,9.16
2022-11-15T05:58:38.634Z,8.39
2022-11-15T06:01:25.546Z,8.97
2022-11-15T06:04:10.695Z,11.30
2022-11-15T06:06:55.674Z,11.93
2022-11-15T06:09:41.184Z,11.96
2022-11-15T06:12:26.002Z,11.64
2022-11-15T06:15:10.978Z,10.24
2022-11-15T06:17:59.448Z,9.06
2022-11-15T06:20:44.391Z,8.21
2022-11-15T06:23:32.976Z,8.40
2022-11-15T06:26:18.318Z,10.06
2022-11-15T06:29:04.822Z,11.54
2022-11-15T06:31:49.746Z,12.39
2022-11-15T06:34:36.089Z,12.05
2022-11-15T06:37:21.031Z,10.49
2022-11-15T06:40:07.300Z,9.33
2022-11-15T06:42:58.198Z,8.43
2022-11-15T06:45:42.932Z,7.73
2022-11-15T06:48:29.932Z,8.11
2022-11-15T06:51:15.035Z,9.54
2022-11-15T06:54:00.130Z,10.29
2022-11-15T06:56:44.960Z,11.01
2022-11-15T06:59:29.827Z,11.54
2022-11-15T07:02:15.218Z,11.72
2022-11-15T07:05:00.304Z,11.87
2022-11-15T07:07:52.811Z,11.78
2022-11-15T07:10:37.737Z,10.67
2022-11-15T07:13:26.409Z,9.49
2022-11-15T07:16:12.028Z,8.63
2022-11-15T07:18:57.279Z,8.78
2022-11-15T07:21:42.423Z,10.07
2022-11-15T07:24:27.355Z,10.60
2022-11-15T07:27:12.374Z,10.92
2022-11-15T07:29:57.760Z,11.18
2022-11-15T07:32:42.805Z,11.62
2022-11-15T07:35:28.704Z,11.90
2022-11-15T07:38:15.275Z,12.16
2022-11-15T07:41:03.165Z,11.62
2022-11-15T07:43:51.873Z,10.38
2022-11-15T07:46:37.113Z,9.40
2022-11-15T07:49:22.233Z,8.72
2022-11-15T07:52:07.089Z,9.17
2022-11-15T07:54:52.043Z,10.79
2022-11-15T07:57:37.304Z,11.53
2022-11-15T08:00:22.775Z,11.87
2022-11-15T08:03:12.581Z,12.04
2022-11-15T08:05:57.720Z,11.99
2022-11-15T08:08:42.464Z,11.61
2022-11-15T08:11:27.162Z,10.40
2022-11-15T08:14:12.270Z,9.38
2022-11-15T08:16:56.996Z,8.60
2022-11-15T08:19:42.017Z,9.03
2022-11-15T08:22:26.828Z,10.44
2022-11-15T08:25:11.933Z,11.08
2022-11-15T08:28:00.600Z,11.69
2022-11-15T08:30:45.890Z,12.34
2022-11-15T08:33:33.064Z,12.66
2022-11-15T08:36:18.364Z,11.65
2022-11-15T08:39:03.394Z,10.38
2022-11-15T08:41:48.591Z,9.49
2022-11-15T08:44:33.632Z,8.83
2022-11-15T08:47:18.495Z,8.33
2022-11-15T08:50:03.671Z,8.78
2022-11-15T08:52:48.977Z,10.22
2022-11-15T08:55:37.523Z,11.13
2022-11-15T08:58:22.483Z,11.87
2022-11-15T09:01:18.348Z,12.17
2022-11-15T09:04:04.369Z,12.55
2022-11-15T09:06:49.621Z,12.29
2022-11-15T09:09:35.067Z,11.15
2022-11-15T09:12:19.778Z,10.24
2022-11-15T09:15:06.474Z,9.56
2022-11-15T09:17:51.320Z,9.52
2022-11-15T09:20:36.709Z,10.96
2022-11-15T09:23:24.614Z,11.83
2022-11-15T09:26:09.460Z,12.12
2022-11-15T09:28:54.388Z,12.19
2022-11-15T09:31:39.068Z,12.36
2022-11-15T09:34:24.197Z,12.34
2022-11-15T09:37:08.906Z,12.43
2022-11-15T09:39:53.532Z,12.05
2022-11-15T09:43:16.485Z,11.01
2022-11-15T09:46:32.699Z,9.98
2022-11-15T09:49:18.760Z,9.37
2022-11-15T09:52:24.131Z,10.06
2022-11-15T09:54:54.347Z,11.77
2022-11-15T09:58:04.259Z,12.75
2022-11-15T10:00:47.030Z,13.78
2022-11-15T10:03:17.040Z,13.84
2022-11-15T10:05:46.309Z,12.63
2022-11-15T10:08:28.320Z,11.62
2022-11-15T10:11:30.379Z,10.77
2022-11-15T10:13:50.506Z,10.12
2022-11-15T10:16:47.472Z,9.74
2022-11-15T10:19:29.069Z,10.96
2022-11-15T10:22:13.842Z,13.37
2022-11-15T10:24:45.440Z,13.90
2022-11-15T10:27:15.525Z,13.00
2022-11-15T10:29:47.337Z,11.78
2022-11-15T10:32:15.915Z,10.89
2022-11-15T10:34:42.758Z,10.28
2022-11-15T10:37:09.677Z,9.85
2022-11-15T10:39:36.318Z,10.21
2022-11-15T10:42:28.490Z,11.59
2022-11-15T10:44:55.755Z,12.59
2022-11-15T10:47:28.612Z,13.15
2022-11-15T10:49:56.871Z,13.48
2022-11-15T10:52:24.824Z,12.98
2022-11-15T10:55:04.975Z,11.97
2022-11-15T10:57:36.576Z,11.09
2022-11-15T11:00:07.684Z,10.50
2022-11-15T11:02:56.780Z,10.07
2022-11-15T11:05:42.521Z,10.96
2022-11-15T11:08:12.166Z,12.42
2022-11-15T11:10:51.362Z,12.87
2022-11-15T11:13:25.154Z,13.10
2022-11-15T11:16:10.781Z,13.02
2022-11-15T11:19:06.998Z,12.06
2022-11-15T11:22:12.517Z,11.17
2022-11-15T11:24:50.042Z,10.48
2022-11-15T11:27:32.898Z,10.06
2022-11-15T11:30:22.340Z,10.56
2022-11-15T11:33:16.783Z,12.13
2022-11-15T11:35:53.517Z,12.99
2022-11-15T11:38:34.383Z,13.21
2022-11-15T11:41:28.989Z,13.41
2022-11-15T11:44:18.500Z,13.53
2022-11-15T11:46:50.183Z,12.56
2022-11-15T11:49:23.452Z,11.69
2022-11-15T11:52:22.025Z,11.06
2022-11-15T11:54:58.941Z,10.56
2022-11-15T11:57:28.036Z,10.74
2022-11-15T12:00:01.896Z,11.93
2022-11-15T12:02:34.916Z,12.90
2022-11-15T12:05:17.576Z,13.45
2022-11-15T12:07:46.594Z,13.97
2022-11-15T12:10:29.042Z,13.90
2022-11-15T12:12:55.471Z,12.76
2022-11-15T12:15:54.007Z,11.85
2022-11-15T12:18:20.330Z,11.06
2022-11-15T12:20:55.808Z,10.59
2022-11-15T12:23:29.248Z,10.64
2022-11-15T12:26:03.536Z,11.97
2022-11-15T12:29:05.989Z,12.93
2022-11-15T12:31:49.275Z,13.62
2022-11-15T12:34:21.500Z,13.99
2022-11-15T12:36:50.124Z,13.69
2022-11-15T12:39:17.628Z,12.65
2022-11-15T12:42:07.067Z,11.75
2022-11-15T12:44:39.412Z,10.99
2022-11-15T12:47:26.054Z,10.50
2022-11-15T12:49:53.289Z,10.91
2022-11-15T12:52:20.623Z,12.11
2022-11-15T12:54:51.146Z,13.17
2022-11-15T12:57:20.348Z,13.87
2022-11-15T12:59:55.620Z,14.25
2022-11-15T13:02:23.343Z,14.03
2022-11-15T13:04:51.859Z,12.93
2022-11-15T13:07:39.334Z,11.99
2022-11-15T13:10:30.543Z,11.23
2022-11-15T13:12:59.424Z,10.68
2022-11-15T13:15:59.220Z,10.32
2022-11-15T13:18:34.298Z,10.70
2022-11-15T13:21:22.375Z,11.94
2022-11-15T13:23:53.405Z,12.95
2022-11-15T13:26:21.111Z,13.53
2022-11-15T13:28:52.221Z,13.76
2022-11-15T13:31:37.858Z,13.50
2022-11-15T13:34:44.060Z,12.48
2022-11-15T13:37:02.282Z,11.58
2022-11-15T13:39:30.130Z,11.03
2022-11-15T13:41:57.605Z,10.57
2022-11-15T13:44:31.587Z,10.20
2022-11-15T13:47:19.862Z,10.46
2022-11-15T13:49:47.283Z,11.68
2022-11-15T13:52:16.735Z,12.47
2022-11-15T13:55:03.780Z,12.69
2022-11-15T13:57:44.864Z,12.80
2022-11-15T14:00:45.055Z,12.92
2022-11-15T14:03:27.922Z,13.07
2022-11-15T14:06:21.961Z,13.26
2022-11-15T14:08:59.462Z,12.77
2022-11-15T14:11:26.291Z,11.85
2022-11-15T14:14:07.938Z,11.18
2022-11-15T14:16:43.018Z,10.62
2022-11-15T14:19:21.641Z,10.21
2022-11-15T14:22:11.538Z,10.34
2022-11-15T14:24:39.322Z,11.90
2022-11-15T14:27:27.485Z,12.51
2022-11-15T14:29:54.759Z,13.00
2022-11-15T14:32:26.881Z,13.49
2022-11-15T14:35:01.203Z,14.34
2022-11-15T14:37:35.058Z,14.11
2022-11-15T14:40:04.454Z,12.86
2022-11-15T14:42:31.525Z,11.89
2022-11-15T14:44:58.583Z,11.21
2022-11-15T14:47:24.957Z,10.66
2022-11-15T14:49:51.325Z,10.59
2022-11-15T14:52:33.964Z,11.56
2022-11-15T14:55:02.622Z,12.35
2022-11-15T14:57:29.953Z,12.78
2022-11-15T14:59:57.129Z,13.30
2022-11-15T15:02:26.041Z,13.69
2022-11-15T15:04:53.254Z,13.07
2022-11-15T15:07:20.623Z,12.03
2022-11-15T15:09:47.262Z,11.18
2022-11-15T15:12:19.861Z,10.54
2022-11-15T15:14:47.866Z,10.52
2022-11-15T15:17:14.690Z,11.70
2022-11-15T15:19:41.701Z,12.47
2022-11-15T15:22:19.929Z,12.74
2022-11-15T15:24:46.659Z,12.92
2022-11-15T15:27:14.581Z,12.99
2022-11-15T15:29:41.344Z,13.06
2022-11-15T15:33:38.795Z,12.36
2022-11-15T15:36:10.344Z,11.48
2022-11-15T15:38:38.010Z,10.76
2022-11-15T15:41:10.489Z,10.21
2022-11-15T15:43:38.774Z,9.78
2022-11-15T15:46:11.200Z,10.27
2022-11-15T15:48:40.467Z,12.80
2022-11-15T15:51:14.318Z,14.25
2022-11-15T15:53:46.496Z,14.37
2022-11-15T15:56:14.311Z,13.07
2022-11-15T15:58:42.043Z,11.86
2022-11-15T16:01:09.907Z,10.97
2022-11-15T16:03:37.673Z,10.31
2022-11-15T16:06:06.888Z,9.82
2022-11-15T16:08:53.254Z,9.88
2022-11-15T16:11:22.628Z,11.12
2022-11-15T16:13:50.343Z,11.95
2022-11-15T16:16:19.047Z,12.94
2022-11-15T16:18:46.788Z,13.98
2022-11-15T16:21:14.638Z,14.40
2022-11-15T16:23:42.337Z,13.12
2022-11-15T16:26:28.468Z,11.89
2022-11-15T16:28:56.508Z,10.86
2022-11-15T16:31:24.206Z,10.25
2022-11-15T16:33:51.914Z,9.77
2022-11-15T16:36:28.474Z,10.29
2022-11-15T16:38:59.714Z,12.52
2022-11-15T16:41:27.640Z,13.82
2022-11-15T16:43:55.551Z,13.98
2022-11-15T16:46:25.881Z,12.76
2022-11-15T16:48:54.324Z,11.57
2022-11-15T16:51:23.579Z,10.70
2022-11-15T16:53:51.546Z,10.04
2022-11-15T16:56:27.329Z,10.32
2022-11-15T16:58:58.607Z,12.47
2022-11-15T17:01:33.041Z,13.83
2022-11-15T17:04:12.891Z,13.77
2022-11-15T17:06:42.732Z,12.40
2022-11-15T17:09:12.681Z,11.28
2022-11-15T17:11:41.394Z,10.48
2022-11-15T17:14:10.475Z,9.94
2022-11-15T17:16:42.241Z,9.53
2022-11-15T17:19:18.228Z,9.86
2022-11-15T17:21:48.120Z,12.11
2022-11-15T17:24:17.231Z,13.23
2022-11-15T17:26:44.929Z,13.71
2022-11-15T17:29:12.681Z,13.64
2022-11-15T17:34:45.292Z,11.12
2022-11-15T17:37:13.054Z,10.35
2022-11-15T17:39:40.906Z,9.73
2022-11-15T17:42:09.423Z,10.13
2022-11-15T17:44:38.176Z,12.48
2022-11-15T17:47:05.911Z,13.74
2022-11-15T17:49:35.025Z,13.52
2022-11-15T17:52:02.716Z,12.27
2022-11-15T17:54:30.397Z,11.19
2022-11-15T17:56:58.105Z,10.42
2022-11-15T17:59:25.913Z,9.86
2022-11-15T18:01:56.170Z,10.16
2022-11-15T18:04:28.354Z,11.97
2022-11-15T18:06:56.494Z,12.79
2022-11-15T18:09:25.831Z,13.04
2022-11-15T18:11:55.095Z,12.87
2022-11-15T18:14:22.827Z,11.84
2022-11-15T18:16:50.706Z,10.89
2022-11-15T18:19:18.421Z,10.15
2022-11-15T18:22:00.527Z,10.30
2022-11-15T18:24:30.624Z,12.12
2022-11-15T18:26:59.429Z,13.23
2022-11-15T18:29:28.144Z,13.84
2022-11-15T18:31:56.409Z,13.43
2022-11-15T18:34:25.647Z,12.18
2022-11-15T18:36:53.854Z,11.12
2022-11-15T18:39:21.625Z,10.35
2022-11-15T18:41:49.683Z,9.77
2022-11-15T18:44:18.911Z,9.32
2022-11-15T18:46:46.913Z,9.69
2022-11-15T18:49:17.080Z,11.78
2022-11-15T18:51:44.904Z,13.45
2022-11-15T18:54:15.110Z,13.64
2022-11-15T18:56:47.060Z,12.71
2022-11-15T18:59:15.472Z,11.45
2022-11-15T19:01:48.152Z,10.48
2022-11-15T19:04:18.513Z,9.74
2022-11-15T19:06:48.395Z,10.18
2022-11-15T19:09:18.436Z,12.37
2022-11-15T19:11:48.197Z,13.39
2022-11-15T19:14:16.716Z,13.44
2022-11-15T19:16:52.588Z,12.21
2022-11-15T19:19:27.788Z,11.05
2022-11-15T19:21:57.468Z,10.19
2022-11-15T19:24:27.196Z,9.55
2022-11-15T19:26:55.337Z,9.61
2022-11-15T19:29:23.076Z,11.01
2022-11-15T19:31:50.878Z,12.45
2022-11-15T19:34:18.658Z,13.73
2022-11-15T19:36:46.675Z,14.09
2022-11-15T19:39:15.409Z,12.69
2022-11-15T19:41:44.270Z,11.36
2022-11-15T19:44:13.178Z,10.39
2022-11-15T19:46:41.669Z,9.69
2022-11-15T19:49:11.199Z,9.15
2022-11-15T19:51:42.466Z,9.68
2022-11-15T19:54:10.886Z,11.92
2022-11-15T19:56:40.063Z,12.84
2022-11-15T19:59:08.927Z,13.21
2022-11-15T20:01:38.840Z,12.95
2022-11-15T20:04:08.270Z,11.75
2022-11-15T20:06:39.331Z,10.70
2022-11-15T20:09:08.596Z,9.85
2022-11-15T20:11:38.217Z,9.65
2022-11-15T20:14:07.892Z,11.04
2022-11-15T20:16:35.861Z,12.15
2022-11-15T20:19:03.832Z,12.60
2022-11-15T20:21:31.630Z,12.80
2022-11-15T20:23:59.566Z,12.93
2022-11-15T20:26:27.412Z,12.40
2022-11-15T20:29:01.030Z,11.21
2022-11-15T20:31:30.391Z,10.22
2022-11-15T20:33:58.735Z,9.50
2022-11-15T20:36:26.543Z,8.91
2022-11-15T20:38:59.223Z,8.94
2022-11-15T20:41:27.697Z,9.99
2022-11-15T20:43:55.946Z,10.69
2022-11-15T20:46:24.027Z,11.28
2022-11-15T20:48:51.779Z,11.96
2022-11-15T20:51:20.281Z,12.58
2022-11-15T20:53:48.451Z,13.15
2022-11-15T20:56:18.911Z,12.44
2022-11-15T20:58:47.436Z,11.05
2022-11-15T21:01:17.276Z,9.97
2022-11-15T21:03:47.148Z,9.12
2022-11-15T21:06:14.986Z,8.96
2022-11-15T21:09:01.282Z,9.89
2022-11-15T21:11:47.789Z,10.79
2022-11-15T21:14:15.527Z,11.17
2022-11-15T21:16:43.335Z,11.29
2022-11-15T21:19:11.384Z,11.34
2022-11-15T21:21:39.401Z,11.32
2022-11-15T21:24:09.076Z,11.26
2022-11-15T21:26:37.185Z,11.67
2022-11-15T21:29:05.122Z,12.60
2022-11-15T21:31:33.024Z,12.86
2022-11-15T21:34:02.706Z,12.29
2022-11-15T21:36:30.420Z,10.90
2022-11-15T21:38:58.209Z,9.71
2022-11-15T21:41:26.055Z,8.84
2022-11-15T21:44:00.784Z,8.98
2022-11-15T21:46:30.157Z,10.86
2022-11-15T21:48:58.594Z,11.62
2022-11-15T21:51:26.356Z,12.33
2022-11-15T21:53:55.730Z,13.03
2022-11-15T21:56:25.712Z,12.77
2022-11-15T21:58:54.274Z,11.29
2022-11-15T22:01:42.854Z,10.01
2022-11-15T22:04:10.613Z,8.95
2022-11-15T22:06:38.467Z,8.61
2022-11-15T22:09:06.975Z,10.02
2022-11-15T22:11:35.268Z,11.67
2022-11-15T22:14:03.497Z,12.40
2022-11-15T22:16:31.738Z,12.62
2022-11-15T22:18:59.973Z,11.93
2022-11-15T22:21:27.853Z,10.59
2022-11-15T22:23:55.901Z,9.48
2022-11-15T22:26:24.298Z,8.69
2022-11-15T22:28:53.806Z,8.52
2022-11-15T22:31:21.698Z,10.17
2022-11-15T22:33:49.517Z,11.55
2022-11-15T22:36:17.519Z,12.44
2022-11-15T22:38:45.386Z,12.48
2022-11-15T22:41:13.372Z,11.15
2022-11-15T22:43:41.618Z,9.88
2022-11-15T22:46:10.779Z,8.95
2022-11-15T22:48:39.610Z,8.84
2022-11-15T22:51:08.428Z,10.45
2022-11-15T22:53:36.291Z,11.36
2022-11-15T22:56:06.323Z,11.68
2022-11-15T22:58:34.553Z,11.98
2022-11-15T23:01:05.111Z,11.61
2022-11-15T23:03:34.146Z,10.38
2022-11-15T23:06:07.098Z,9.35
2022-11-15T23:08:35.404Z,8.51
2022-11-15T23:11:23.267Z,8.63
2022-11-15T23:13:52.388Z,11.06
2022-11-15T23:16:22.544Z,11.97
2022-11-15T23:18:54.456Z,12.15
2022-11-15T23:21:50.302Z,11.76
2022-11-15T23:24:18.958Z,10.32
2022-11-15T23:26:48.597Z,9.30
2022-11-15T23:29:18.826Z,8.51
2022-11-15T23:32:05.537Z,8.45
2022-11-15T23:34:36.967Z,10.26
2022-11-15T23:37:06.356Z,11.18
2022-11-15T23:39:34.228Z,11.39
2022-11-15T23:42:07.659Z,11.63
2022-11-15T23:44:37.339Z,11.90
2022-11-15T23:47:05.151Z,12.01
2022-11-15T23:49:33.062Z,12.64
2022-11-15T23:52:00.858Z,13.04
2022-11-15T23:54:28.669Z,11.87
2022-11-15T23:56:56.417Z,10.65
2022-11-15T23:59:24.371Z,9.73
